Terminal Aerodrome Forecast
Issued by NWS Green Bay, WI

Home | Current Version | Previous Version | Text Only | Print | Product List | Glossary Off
Versions: 1 2 3 4 5 6 7 8 9 10 11 12 13 14 15 16 17 18 19 20 21 22 23 24

000
FTUS43 KGRB 182340
TAFGRB
TAF
KGRB 182340Z 1900/1924 08006KT P6SM BKN150
     FM190100 09004KT P6SM BKN120
     FM190400 06005KT P6SM VCSH BKN070
     FM190700 06004KT P6SM BKN100
     FM191700 12007KT P6SM SCT120
     FM192100 11007KT P6SM SCT050 BKN200=

USA.gov is the U.S. government's official web portal to all federal, state and local government web resources and services.